Orbital elements of FENGYUN 1C DEB
| Launched | 9 May 1999 |
| Flight ended | – |
| Launch site | Taiyuan Space Center, PRC |
| Owner | People's Republic of China |
| NORAD ID | 30358 |
| Date fetched |
Epoch osculation |
Inc. [°] |
Ecc. | RA asc node [hr] |
Arg Peri. [°] |
Mean anom [°] |
Mean motion [rev/day] |
Abs. mag |
| Date fetched |
Epoch osculation |
Inc. [°] |
Ecc. | RA asc node [hr] |
Arg Peri. [°] |
Mean anom [°] |
Mean motion [rev/day] |
Abs. mag |
| 2026 May 09 17:57 | 2026 May 05 11:06:27 | 98.5577 | 0.00833 | 21.0100 | 141.5863 | 278.5972 | 14.21650 | – |
| 2026 May 08 17:57 | 2026 May 05 11:06:27 | 98.5577 | 0.00833 | 21.0100 | 141.5863 | 278.5972 | 14.21650 | – |
| 2026 May 07 17:58 | 2026 May 05 11:06:27 | 98.5577 | 0.00833 | 21.0100 | 141.5863 | 278.5972 | 14.21650 | – |
| 2026 May 06 17:57 | 2026 May 05 11:06:27 | 98.5577 | 0.00833 | 21.0100 | 141.5863 | 278.5972 | 14.21650 | – |
| 2026 May 05 17:57 | 2026 May 05 11:06:27 | 98.5577 | 0.00833 | 21.0100 | 141.5863 | 278.5972 | 14.21650 | – |
| 2026 May 04 17:57 | 2026 Apr 30 11:10:23 | 98.5571 | 0.00829 | 20.6869 | 155.9616 | 278.5972 | 14.21650 | – |
| 2026 May 03 17:57 | 2026 Apr 30 11:10:23 | 98.5571 | 0.00829 | 20.6869 | 155.9616 | 278.5972 | 14.21650 | – |
| 2026 May 02 17:57 | 2026 Apr 30 11:10:23 | 98.5571 | 0.00829 | 20.6869 | 155.9616 | 278.5972 | 14.21650 | – |
| 2026 May 01 17:56 | 2026 Apr 30 11:10:23 | 98.5571 | 0.00829 | 20.6869 | 155.9616 | 278.5972 | 14.21650 | – |
| 2026 Apr 30 17:56 | 2026 Apr 30 11:10:23 | 98.5571 | 0.00829 | 20.6869 | 155.9616 | 278.5972 | 14.21650 | – |
| 2026 Apr 29 17:57 | 2026 Apr 24 11:36:57 | 98.5580 | 0.00826 | 20.3002 | 173.2646 | 278.5972 | 14.21650 | – |
| 2026 Apr 28 17:56 | 2026 Apr 24 11:36:57 | 98.5580 | 0.00826 | 20.3002 | 173.2646 | 278.5972 | 14.21650 | – |
| 2026 Apr 27 17:58 | 2026 Apr 24 11:36:57 | 98.5580 | 0.00826 | 20.3002 | 173.2646 | 278.5972 | 14.21650 | – |
| 2026 Apr 26 17:58 | 2026 Apr 24 11:36:57 | 98.5580 | 0.00826 | 20.3002 | 173.2646 | 278.5972 | 14.21650 | – |
| 2026 Apr 25 17:58 | 2026 Apr 24 11:36:57 | 98.5580 | 0.00826 | 20.3002 | 173.2646 | 278.5972 | 14.21650 | – |
| 2026 Apr 24 17:59 | 2026 Apr 24 11:36:57 | 98.5580 | 0.00826 | 20.3002 | 173.2646 | 278.5972 | 14.21650 | – |
| 2026 Apr 23 17:57 | 2026 Apr 18 11:59:10 | 98.5572 | 0.00822 | 19.9133 | 190.6678 | 278.5972 | 14.21650 | – |
| 2026 Apr 22 17:57 | 2026 Apr 18 11:59:10 | 98.5572 | 0.00822 | 19.9133 | 190.6678 | 278.5972 | 14.21650 | – |
| 2026 Apr 21 17:57 | 2026 Apr 18 11:59:10 | 98.5572 | 0.00822 | 19.9133 | 190.6678 | 278.5972 | 14.21650 | – |
| 2026 Apr 20 17:57 | 2026 Apr 18 11:59:10 | 98.5572 | 0.00822 | 19.9133 | 190.6678 | 278.5972 | 14.21650 | – |
| 2026 Apr 19 17:58 | 2026 Apr 18 11:59:10 | 98.5572 | 0.00822 | 19.9133 | 190.6678 | 278.5972 | 14.21650 | – |
| 2026 Apr 18 17:56 | 2026 Apr 12 10:45:05 | 98.5583 | 0.00819 | 19.5221 | 208.3092 | 278.5972 | 14.21650 | – |
| 2026 Apr 16 17:57 | 2026 Apr 12 10:45:05 | 98.5583 | 0.00819 | 19.5221 | 208.3092 | 278.5972 | 14.21650 | – |
| 2026 Apr 14 17:57 | 2026 Apr 12 10:45:05 | 98.5583 | 0.00819 | 19.5221 | 208.3092 | 278.5972 | 14.21650 | – |
| 2026 Apr 13 17:57 | 2026 Apr 12 10:45:05 | 98.5583 | 0.00819 | 19.5221 | 208.3092 | 278.5972 | 14.21650 | – |
| 2026 Apr 12 17:57 | 2026 Apr 08 12:06:30 | 98.5581 | 0.00817 | 19.2671 | 219.8548 | 278.5972 | 14.21650 | – |